sensor_id;sensor_type;location;lat;lon;timestamp;P1;durP1;ratioP1;P2;durP2;ratioP2
55328;SDS011;41205;44.264;19.884;2023-04-03T00:01:32;5.97;;;4.18;;
55328;SDS011;41205;44.264;19.884;2023-04-03T00:03:58;7.93;;;4.28;;
55328;SDS011;41205;44.264;19.884;2023-04-03T00:06:24;6.72;;;4.35;;
55328;SDS011;41205;44.264;19.884;2023-04-03T00:08:51;5.43;;;3.95;;
55328;SDS011;41205;44.264;19.884;2023-04-03T00:11:17;7.22;;;4.93;;
55328;SDS011;41205;44.264;19.884;2023-04-03T00:13:43;6.38;;;5.15;;
55328;SDS011;41205;44.264;19.884;2023-04-03T00:16:10;8.00;;;5.05;;
55328;SDS011;41205;44.264;19.884;2023-04-03T00:18:37;7.15;;;5.28;;
55328;SDS011;41205;44.264;19.884;2023-04-03T00:21:04;8.57;;;5.60;;
55328;SDS011;41205;44.264;19.884;2023-04-03T00:23:30;8.32;;;5.25;;
55328;SDS011;41205;44.264;19.884;2023-04-03T00:25:56;7.13;;;5.78;;
55328;SDS011;41205;44.264;19.884;2023-04-03T00:28:21;8.40;;;5.47;;
55328;SDS011;41205;44.264;19.884;2023-04-03T00:30:50;8.35;;;5.25;;
55328;SDS011;41205;44.264;19.884;2023-04-03T00:33:16;6.72;;;4.90;;
55328;SDS011;41205;44.264;19.884;2023-04-03T00:35:46;8.23;;;4.78;;
55328;SDS011;41205;44.264;19.884;2023-04-03T00:38:13;7.03;;;4.78;;
55328;SDS011;41205;44.264;19.884;2023-04-03T00:40:41;8.30;;;6.30;;
55328;SDS011;41205;44.264;19.884;2023-04-03T00:43:13;9.32;;;6.95;;
55328;SDS011;41205;44.264;19.884;2023-04-03T00:45:44;7.57;;;5.38;;
55328;SDS011;41205;44.264;19.884;2023-04-03T00:48:18;7.75;;;5.25;;
55328;SDS011;41205;44.264;19.884;2023-04-03T00:50:47;9.15;;;6.38;;
55328;SDS011;41205;44.264;19.884;2023-04-03T00:53:16;10.70;;;6.13;;
55328;SDS011;41205;44.264;19.884;2023-04-03T00:55:47;8.77;;;6.45;;
55328;SDS011;41205;44.264;19.884;2023-04-03T00:58:14;9.98;;;6.57;;
55328;SDS011;41205;44.264;19.884;2023-04-03T01:00:44;8.00;;;5.90;;
55328;SDS011;41205;44.264;19.884;2023-04-03T01:03:14;10.73;;;6.97;;
55328;SDS011;41205;44.264;19.884;2023-04-03T01:05:40;10.18;;;7.28;;
55328;SDS011;41205;44.264;19.884;2023-04-03T01:08:05;9.25;;;7.97;;
55328;SDS011;41205;44.264;19.884;2023-04-03T01:10:31;15.77;;;12.52;;
55328;SDS011;41205;44.264;19.884;2023-04-03T01:12:57;11.27;;;9.00;;
55328;SDS011;41205;44.264;19.884;2023-04-03T01:15:26;10.95;;;7.80;;
55328;SDS011;41205;44.264;19.884;2023-04-03T01:17:58;12.85;;;9.68;;
55328;SDS011;41205;44.264;19.884;2023-04-03T01:25:39;11.43;;;8.77;;
55328;SDS011;41205;44.264;19.884;2023-04-03T01:28:23;9.85;;;8.15;;
55328;SDS011;41205;44.264;19.884;2023-04-03T01:33:44;12.57;;;9.35;;
55328;SDS011;41205;44.264;19.884;2023-04-03T01:36:13;13.88;;;10.82;;
55328;SDS011;41205;44.264;19.884;2023-04-03T01:38:41;17.23;;;12.68;;
55328;SDS011;41205;44.264;19.884;2023-04-03T01:41:07;14.73;;;10.30;;
55328;SDS011;41205;44.264;19.884;2023-04-03T01:43:32;17.92;;;11.32;;
55328;SDS011;41205;44.264;19.884;2023-04-03T01:45:58;16.35;;;11.48;;
55328;SDS011;41205;44.264;19.884;2023-04-03T01:48:24;21.80;;;14.30;;
55328;SDS011;41205;44.264;19.884;2023-04-03T01:50:49;17.10;;;11.70;;
55328;SDS011;41205;44.264;19.884;2023-04-03T01:53:15;13.77;;;10.60;;
55328;SDS011;41205;44.264;19.884;2023-04-03T01:55:41;16.88;;;12.40;;
55328;SDS011;41205;44.264;19.884;2023-04-03T01:58:07;17.42;;;11.88;;
55328;SDS011;41205;44.264;19.884;2023-04-03T02:00:32;16.80;;;12.45;;
55328;SDS011;41205;44.264;19.884;2023-04-03T02:02:58;14.13;;;10.32;;
55328;SDS011;41205;44.264;19.884;2023-04-03T02:05:24;15.73;;;10.77;;
55328;SDS011;41205;44.264;19.884;2023-04-03T02:07:50;16.17;;;12.18;;
55328;SDS011;41205;44.264;19.884;2023-04-03T02:10:16;15.40;;;10.68;;
55328;SDS011;41205;44.264;19.884;2023-04-03T02:12:41;19.55;;;14.43;;
55328;SDS011;41205;44.264;19.884;2023-04-03T02:15:07;18.98;;;12.50;;
55328;SDS011;41205;44.264;19.884;2023-04-03T02:17:34;12.65;;;9.90;;
55328;SDS011;41205;44.264;19.884;2023-04-03T02:20:00;23.65;;;14.60;;
55328;SDS011;41205;44.264;19.884;2023-04-03T02:22:26;18.48;;;13.07;;
55328;SDS011;41205;44.264;19.884;2023-04-03T02:24:52;17.63;;;11.52;;
55328;SDS011;41205;44.264;19.884;2023-04-03T02:27:17;16.95;;;11.15;;
55328;SDS011;41205;44.264;19.884;2023-04-03T02:29:43;54.92;;;32.08;;
55328;SDS011;41205;44.264;19.884;2023-04-03T02:32:09;26.27;;;17.38;;
55328;SDS011;41205;44.264;19.884;2023-04-03T02:34:34;28.30;;;19.17;;
55328;SDS011;41205;44.264;19.884;2023-04-03T02:37:00;16.50;;;10.98;;
55328;SDS011;41205;44.264;19.884;2023-04-03T02:39:26;16.52;;;11.57;;
55328;SDS011;41205;44.264;19.884;2023-04-03T02:41:52;15.85;;;10.95;;
55328;SDS011;41205;44.264;19.884;2023-04-03T02:44:19;19.80;;;11.88;;
55328;SDS011;41205;44.264;19.884;2023-04-03T02:46:44;15.10;;;10.30;;
55328;SDS011;41205;44.264;19.884;2023-04-03T02:49:10;19.20;;;12.23;;
55328;SDS011;41205;44.264;19.884;2023-04-03T02:51:36;18.60;;;13.55;;
55328;SDS011;41205;44.264;19.884;2023-04-03T02:54:01;13.43;;;10.18;;
55328;SDS011;41205;44.264;19.884;2023-04-03T02:56:27;15.70;;;10.82;;
55328;SDS011;41205;44.264;19.884;2023-04-03T02:58:53;13.52;;;10.23;;
55328;SDS011;41205;44.264;19.884;2023-04-03T03:01:19;20.80;;;15.00;;
55328;SDS011;41205;44.264;19.884;2023-04-03T03:03:45;19.40;;;13.27;;
55328;SDS011;41205;44.264;19.884;2023-04-03T03:06:12;17.70;;;10.88;;
55328;SDS011;41205;44.264;19.884;2023-04-03T03:08:39;14.77;;;10.93;;
55328;SDS011;41205;44.264;19.884;2023-04-03T03:11:06;16.23;;;10.02;;
55328;SDS011;41205;44.264;19.884;2023-04-03T03:13:31;13.30;;;9.57;;
55328;SDS011;41205;44.264;19.884;2023-04-03T03:15:58;11.32;;;9.05;;
55328;SDS011;41205;44.264;19.884;2023-04-03T03:18:24;12.30;;;9.43;;
55328;SDS011;41205;44.264;19.884;2023-04-03T03:20:53;13.90;;;10.18;;
55328;SDS011;41205;44.264;19.884;2023-04-03T03:23:21;14.27;;;9.98;;
55328;SDS011;41205;44.264;19.884;2023-04-03T03:25:48;14.60;;;10.40;;
55328;SDS011;41205;44.264;19.884;2023-04-03T03:28:14;25.98;;;21.27;;
55328;SDS011;41205;44.264;19.884;2023-04-03T03:30:40;17.52;;;12.60;;
55328;SDS011;41205;44.264;19.884;2023-04-03T03:33:06;13.43;;;10.95;;
55328;SDS011;41205;44.264;19.884;2023-04-03T03:35:32;15.50;;;10.73;;
55328;SDS011;41205;44.264;19.884;2023-04-03T03:37:58;15.73;;;10.27;;
55328;SDS011;41205;44.264;19.884;2023-04-03T03:40:24;13.68;;;10.45;;
55328;SDS011;41205;44.264;19.884;2023-04-03T03:42:50;14.40;;;10.13;;
55328;SDS011;41205;44.264;19.884;2023-04-03T03:45:16;14.88;;;10.45;;
55328;SDS011;41205;44.264;19.884;2023-04-03T03:47:41;16.38;;;11.55;;
55328;SDS011;41205;44.264;19.884;2023-04-03T03:50:08;14.75;;;10.88;;
55328;SDS011;41205;44.264;19.884;2023-04-03T03:52:34;17.33;;;12.55;;
55328;SDS011;41205;44.264;19.884;2023-04-03T03:55:00;14.73;;;11.30;;
55328;SDS011;41205;44.264;19.884;2023-04-03T03:57:26;17.42;;;12.57;;
55328;SDS011;41205;44.264;19.884;2023-04-03T03:59:53;16.60;;;12.38;;
55328;SDS011;41205;44.264;19.884;2023-04-03T04:02:20;16.48;;;12.18;;
55328;SDS011;41205;44.264;19.884;2023-04-03T04:04:45;18.38;;;12.45;;
55328;SDS011;41205;44.264;19.884;2023-04-03T04:07:12;16.45;;;12.68;;
55328;SDS011;41205;44.264;19.884;2023-04-03T04:09:37;23.23;;;13.57;;
55328;SDS011;41205;44.264;19.884;2023-04-03T04:12:03;18.33;;;13.13;;
55328;SDS011;41205;44.264;19.884;2023-04-03T04:14:29;16.75;;;11.95;;
55328;SDS011;41205;44.264;19.884;2023-04-03T04:16:54;16.50;;;12.13;;
55328;SDS011;41205;44.264;19.884;2023-04-03T04:19:20;16.75;;;11.77;;
55328;SDS011;41205;44.264;19.884;2023-04-03T04:21:46;25.65;;;12.63;;
55328;SDS011;41205;44.264;19.884;2023-04-03T04:24:11;19.00;;;13.02;;
55328;SDS011;41205;44.264;19.884;2023-04-03T04:26:37;17.13;;;12.70;;
55328;SDS011;41205;44.264;19.884;2023-04-03T04:29:03;17.30;;;12.82;;
55328;SDS011;41205;44.264;19.884;2023-04-03T04:31:28;20.23;;;13.88;;
55328;SDS011;41205;44.264;19.884;2023-04-03T04:33:54;21.80;;;12.77;;
55328;SDS011;41205;44.264;19.884;2023-04-03T04:36:20;16.40;;;12.85;;
55328;SDS011;41205;44.264;19.884;2023-04-03T04:38:46;16.85;;;13.25;;
55328;SDS011;41205;44.264;19.884;2023-04-03T04:41:11;20.48;;;14.00;;
55328;SDS011;41205;44.264;19.884;2023-04-03T04:43:37;19.13;;;12.75;;
55328;SDS011;41205;44.264;19.884;2023-04-03T04:46:04;21.10;;;13.02;;
55328;SDS011;41205;44.264;19.884;2023-04-03T04:48:34;17.60;;;12.43;;
55328;SDS011;41205;44.264;19.884;2023-04-03T04:51:00;18.17;;;12.80;;
55328;SDS011;41205;44.264;19.884;2023-04-03T04:53:26;17.80;;;12.73;;
55328;SDS011;41205;44.264;19.884;2023-04-03T04:55:52;18.58;;;12.63;;
55328;SDS011;41205;44.264;19.884;2023-04-03T04:58:19;17.48;;;13.13;;
55328;SDS011;41205;44.264;19.884;2023-04-03T05:00:45;18.77;;;12.80;;
55328;SDS011;41205;44.264;19.884;2023-04-03T05:03:11;15.73;;;11.43;;
55328;SDS011;41205;44.264;19.884;2023-04-03T05:05:37;19.33;;;12.70;;
55328;SDS011;41205;44.264;19.884;2023-04-03T05:08:03;25.25;;;12.65;;
55328;SDS011;41205;44.264;19.884;2023-04-03T05:10:29;15.50;;;12.30;;
55328;SDS011;41205;44.264;19.884;2023-04-03T05:12:56;20.50;;;16.73;;
55328;SDS011;41205;44.264;19.884;2023-04-03T05:15:22;18.23;;;12.43;;
55328;SDS011;41205;44.264;19.884;2023-04-03T05:17:47;17.92;;;12.07;;
55328;SDS011;41205;44.264;19.884;2023-04-03T05:20:13;16.02;;;13.60;;
55328;SDS011;41205;44.264;19.884;2023-04-03T05:22:39;13.68;;;10.27;;
55328;SDS011;41205;44.264;19.884;2023-04-03T05:25:04;12.18;;;8.48;;
55328;SDS011;41205;44.264;19.884;2023-04-03T05:27:31;13.55;;;9.40;;
55328;SDS011;41205;44.264;19.884;2023-04-03T05:29:56;12.43;;;9.45;;
55328;SDS011;41205;44.264;19.884;2023-04-03T05:32:23;12.90;;;8.60;;
55328;SDS011;41205;44.264;19.884;2023-04-03T05:34:50;10.35;;;6.65;;
55328;SDS011;41205;44.264;19.884;2023-04-03T05:37:16;18.70;;;11.02;;
55328;SDS011;41205;44.264;19.884;2023-04-03T05:39:42;24.27;;;18.67;;
55328;SDS011;41205;44.264;19.884;2023-04-03T05:42:08;11.55;;;8.93;;
55328;SDS011;41205;44.264;19.884;2023-04-03T05:44:36;13.77;;;8.70;;
55328;SDS011;41205;44.264;19.884;2023-04-03T05:47:02;17.55;;;11.38;;
55328;SDS011;41205;44.264;19.884;2023-04-03T05:49:28;48.50;;;32.00;;
55328;SDS011;41205;44.264;19.884;2023-04-03T05:51:54;11.73;;;8.25;;
55328;SDS011;41205;44.264;19.884;2023-04-03T05:54:27;14.82;;;11.82;;
55328;SDS011;41205;44.264;19.884;2023-04-03T05:56:54;11.82;;;7.80;;
55328;SDS011;41205;44.264;19.884;2023-04-03T05:59:20;10.65;;;7.75;;
55328;SDS011;41205;44.264;19.884;2023-04-03T06:01:46;12.63;;;9.25;;
55328;SDS011;41205;44.264;19.884;2023-04-03T06:04:12;11.63;;;8.73;;
55328;SDS011;41205;44.264;19.884;2023-04-03T06:06:45;16.73;;;10.35;;
55328;SDS011;41205;44.264;19.884;2023-04-03T06:09:19;14.00;;;9.38;;
55328;SDS011;41205;44.264;19.884;2023-04-03T06:11:47;11.27;;;8.63;;
55328;SDS011;41205;44.264;19.884;2023-04-03T06:14:12;26.70;;;23.85;;
55328;SDS011;41205;44.264;19.884;2023-04-03T06:16:38;13.95;;;10.13;;
55328;SDS011;41205;44.264;19.884;2023-04-03T06:19:05;14.93;;;11.48;;
55328;SDS011;41205;44.264;19.884;2023-04-03T06:21:32;12.85;;;9.90;;
55328;SDS011;41205;44.264;19.884;2023-04-03T06:23:58;14.75;;;10.20;;
55328;SDS011;41205;44.264;19.884;2023-04-03T06:26:24;13.07;;;9.68;;
55328;SDS011;41205;44.264;19.884;2023-04-03T06:28:50;15.48;;;12.75;;
55328;SDS011;41205;44.264;19.884;2023-04-03T06:31:15;21.92;;;14.95;;
55328;SDS011;41205;44.264;19.884;2023-04-03T06:33:42;23.70;;;19.83;;
55328;SDS011;41205;44.264;19.884;2023-04-03T06:36:09;13.40;;;9.00;;
55328;SDS011;41205;44.264;19.884;2023-04-03T06:38:36;33.35;;;25.30;;
55328;SDS011;41205;44.264;19.884;2023-04-03T06:41:02;17.45;;;12.57;;
55328;SDS011;41205;44.264;19.884;2023-04-03T06:43:28;11.45;;;8.18;;
55328;SDS011;41205;44.264;19.884;2023-04-03T06:45:56;12.75;;;9.35;;
55328;SDS011;41205;44.264;19.884;2023-04-03T06:48:22;10.38;;;8.07;;
55328;SDS011;41205;44.264;19.884;2023-04-03T06:50:48;10.65;;;7.78;;
55328;SDS011;41205;44.264;19.884;2023-04-03T06:53:14;13.02;;;9.50;;
55328;SDS011;41205;44.264;19.884;2023-04-03T06:55:39;13.95;;;11.45;;
55328;SDS011;41205;44.264;19.884;2023-04-03T06:58:06;10.02;;;7.47;;
55328;SDS011;41205;44.264;19.884;2023-04-03T07:00:32;23.58;;;19.33;;
55328;SDS011;41205;44.264;19.884;2023-04-03T07:02:58;7.38;;;5.22;;
55328;SDS011;41205;44.264;19.884;2023-04-03T07:05:24;7.60;;;4.75;;
55328;SDS011;41205;44.264;19.884;2023-04-03T07:07:51;19.92;;;14.20;;
55328;SDS011;41205;44.264;19.884;2023-04-03T07:10:17;14.40;;;10.68;;
55328;SDS011;41205;44.264;19.884;2023-04-03T07:12:43;7.15;;;5.38;;
55328;SDS011;41205;44.264;19.884;2023-04-03T07:15:09;7.07;;;5.72;;
55328;SDS011;41205;44.264;19.884;2023-04-03T07:17:37;10.13;;;7.63;;
55328;SDS011;41205;44.264;19.884;2023-04-03T07:20:03;7.05;;;5.00;;
55328;SDS011;41205;44.264;19.884;2023-04-03T07:22:29;7.45;;;5.15;;
55328;SDS011;41205;44.264;19.884;2023-04-03T07:24:54;10.93;;;7.18;;
55328;SDS011;41205;44.264;19.884;2023-04-03T07:27:20;45.35;;;27.48;;
55328;SDS011;41205;44.264;19.884;2023-04-03T07:29:46;9.80;;;7.43;;
55328;SDS011;41205;44.264;19.884;2023-04-03T07:32:13;6.07;;;3.70;;
55328;SDS011;41205;44.264;19.884;2023-04-03T07:34:40;6.35;;;4.30;;
55328;SDS011;41205;44.264;19.884;2023-04-03T07:37:05;9.90;;;7.40;;
55328;SDS011;41205;44.264;19.884;2023-04-03T07:39:32;16.10;;;13.60;;
55328;SDS011;41205;44.264;19.884;2023-04-03T07:41:58;6.25;;;4.57;;
55328;SDS011;41205;44.264;19.884;2023-04-03T07:44:24;9.45;;;6.30;;
55328;SDS011;41205;44.264;19.884;2023-04-03T07:46:50;7.95;;;5.55;;
55328;SDS011;41205;44.264;19.884;2023-04-03T07:49:16;38.92;;;25.52;;
55328;SDS011;41205;44.264;19.884;2023-04-03T07:51:47;24.33;;;15.50;;
55328;SDS011;41205;44.264;19.884;2023-04-03T07:54:13;30.48;;;17.50;;
55328;SDS011;41205;44.264;19.884;2023-04-03T07:56:40;5.68;;;4.57;;
55328;SDS011;41205;44.264;19.884;2023-04-03T07:59:07;16.25;;;9.60;;
55328;SDS011;41205;44.264;19.884;2023-04-03T08:01:34;8.60;;;7.40;;
55328;SDS011;41205;44.264;19.884;2023-04-03T08:04:00;5.00;;;3.88;;
55328;SDS011;41205;44.264;19.884;2023-04-03T08:06:26;7.22;;;4.75;;
55328;SDS011;41205;44.264;19.884;2023-04-03T08:08:52;29.65;;;18.83;;
55328;SDS011;41205;44.264;19.884;2023-04-03T08:11:18;92.80;;;56.20;;
55328;SDS011;41205;44.264;19.884;2023-04-03T08:13:44;11.00;;;6.97;;
55328;SDS011;41205;44.264;19.884;2023-04-03T08:16:11;9.45;;;6.32;;
55328;SDS011;41205;44.264;19.884;2023-04-03T08:18:38;6.03;;;4.38;;
55328;SDS011;41205;44.264;19.884;2023-04-03T08:21:10;7.25;;;5.40;;
55328;SDS011;41205;44.264;19.884;2023-04-03T08:23:37;13.95;;;11.18;;
55328;SDS011;41205;44.264;19.884;2023-04-03T08:26:10;5.65;;;4.60;;
55328;SDS011;41205;44.264;19.884;2023-04-03T08:28:37;6.57;;;4.18;;
55328;SDS011;41205;44.264;19.884;2023-04-03T08:31:05;4.65;;;3.45;;
55328;SDS011;41205;44.264;19.884;2023-04-03T08:33:32;8.20;;;5.43;;
55328;SDS011;41205;44.264;19.884;2023-04-03T08:36:00;6.15;;;3.88;;
55328;SDS011;41205;44.264;19.884;2023-04-03T08:38:27;5.35;;;3.95;;
55328;SDS011;41205;44.264;19.884;2023-04-03T08:41:11;5.38;;;3.70;;
55328;SDS011;41205;44.264;19.884;2023-04-03T08:46:06;9.32;;;8.35;;
55328;SDS011;41205;44.264;19.884;2023-04-03T08:48:39;5.88;;;4.00;;
55328;SDS011;41205;44.264;19.884;2023-04-03T08:51:14;7.88;;;6.25;;
55328;SDS011;41205;44.264;19.884;2023-04-03T08:54:01;6.63;;;4.50;;
55328;SDS011;41205;44.264;19.884;2023-04-03T08:56:33;5.32;;;3.38;;
55328;SDS011;41205;44.264;19.884;2023-04-03T08:59:00;6.35;;;4.10;;
55328;SDS011;41205;44.264;19.884;2023-04-03T09:01:35;5.85;;;3.50;;
55328;SDS011;41205;44.264;19.884;2023-04-03T09:04:09;4.03;;;2.90;;
55328;SDS011;41205;44.264;19.884;2023-04-03T09:06:37;5.32;;;3.30;;
55328;SDS011;41205;44.264;19.884;2023-04-03T09:22:53;5.68;;;3.15;;
55328;SDS011;41205;44.264;19.884;2023-04-03T09:25:23;6.60;;;4.53;;
55328;SDS011;41205;44.264;19.884;2023-04-03T09:27:54;4.93;;;3.80;;
55328;SDS011;41205;44.264;19.884;2023-04-03T09:30:22;8.30;;;5.38;;
55328;SDS011;41205;44.264;19.884;2023-04-03T09:32:54;15.40;;;10.10;;
55328;SDS011;41205;44.264;19.884;2023-04-03T09:35:26;11.07;;;6.97;;
55328;SDS011;41205;44.264;19.884;2023-04-03T09:40:47;10.23;;;6.28;;
55328;SDS011;41205;44.264;19.884;2023-04-03T09:49:01;5.85;;;4.07;;
55328;SDS011;41205;44.264;19.884;2023-04-03T09:51:30;5.47;;;2.83;;
55328;SDS011;41205;44.264;19.884;2023-04-03T09:53:56;4.93;;;3.70;;
55328;SDS011;41205;44.264;19.884;2023-04-03T09:56:26;7.82;;;5.80;;
55328;SDS011;41205;44.264;19.884;2023-04-03T10:06:31;8.80;;;6.50;;
55328;SDS011;41205;44.264;19.884;2023-04-03T10:09:04;4.72;;;3.47;;
55328;SDS011;41205;44.264;19.884;2023-04-03T10:14:33;4.82;;;3.20;;
55328;SDS011;41205;44.264;19.884;2023-04-03T10:19:43;4.10;;;2.95;;
55328;SDS011;41205;44.264;19.884;2023-04-03T10:24:49;5.97;;;3.95;;
55328;SDS011;41205;44.264;19.884;2023-04-03T10:27:30;5.28;;;3.78;;
55328;SDS011;41205;44.264;19.884;2023-04-03T10:33:01;7.78;;;5.47;;
55328;SDS011;41205;44.264;19.884;2023-04-03T10:36:01;8.30;;;7.22;;
55328;SDS011;41205;44.264;19.884;2023-04-03T10:38:33;6.32;;;4.38;;
55328;SDS011;41205;44.264;19.884;2023-04-03T10:41:17;11.13;;;9.63;;
55328;SDS011;41205;44.264;19.884;2023-04-03T10:50:13;6.43;;;5.05;;
55328;SDS011;41205;44.264;19.884;2023-04-03T10:52:41;13.27;;;8.48;;
55328;SDS011;41205;44.264;19.884;2023-04-03T10:55:31;10.82;;;7.65;;
55328;SDS011;41205;44.264;19.884;2023-04-03T10:57:59;12.48;;;11.05;;
55328;SDS011;41205;44.264;19.884;2023-04-03T11:00:37;14.88;;;12.30;;
55328;SDS011;41205;44.264;19.884;2023-04-03T11:03:11;16.60;;;14.30;;
55328;SDS011;41205;44.264;19.884;2023-04-03T11:08:19;10.60;;;9.10;;
55328;SDS011;41205;44.264;19.884;2023-04-03T11:11:06;12.00;;;9.55;;
55328;SDS011;41205;44.264;19.884;2023-04-03T11:13:38;15.07;;;11.60;;
55328;SDS011;41205;44.264;19.884;2023-04-03T11:16:08;11.23;;;8.18;;
55328;SDS011;41205;44.264;19.884;2023-04-03T11:18:45;19.52;;;15.27;;
55328;SDS011;41205;44.264;19.884;2023-04-03T11:21:35;13.80;;;11.80;;
55328;SDS011;41205;44.264;19.884;2023-04-03T11:24:09;13.10;;;10.93;;
55328;SDS011;41205;44.264;19.884;2023-04-03T11:26:57;13.73;;;10.73;;
55328;SDS011;41205;44.264;19.884;2023-04-03T11:29:27;14.25;;;11.68;;
55328;SDS011;41205;44.264;19.884;2023-04-03T11:34:34;14.83;;;11.50;;
55328;SDS011;41205;44.264;19.884;2023-04-03T11:40:07;27.13;;;18.33;;
55328;SDS011;41205;44.264;19.884;2023-04-03T11:42:40;21.15;;;16.85;;
55328;SDS011;41205;44.264;19.884;2023-04-03T11:45:17;27.92;;;23.83;;
55328;SDS011;41205;44.264;19.884;2023-04-03T11:47:55;16.02;;;12.15;;
55328;SDS011;41205;44.264;19.884;2023-04-03T12:05:58;19.20;;;15.75;;
55328;SDS011;41205;44.264;19.884;2023-04-03T12:29:33;22.63;;;16.63;;
55328;SDS011;41205;44.264;19.884;2023-04-03T12:40:17;20.73;;;15.30;;
55328;SDS011;41205;44.264;19.884;2023-04-03T12:43:02;23.98;;;17.65;;
55328;SDS011;41205;44.264;19.884;2023-04-03T12:45:44;19.85;;;15.25;;
55328;SDS011;41205;44.264;19.884;2023-04-03T12:48:14;20.02;;;14.30;;
55328;SDS011;41205;44.264;19.884;2023-04-03T12:50:47;22.13;;;17.40;;
55328;SDS011;41205;44.264;19.884;2023-04-03T12:55:55;24.67;;;18.88;;
55328;SDS011;41205;44.264;19.884;2023-04-03T13:01:03;28.98;;;22.73;;
55328;SDS011;41205;44.264;19.884;2023-04-03T13:03:43;22.23;;;15.80;;
55328;SDS011;41205;44.264;19.884;2023-04-03T13:06:17;21.80;;;15.63;;
55328;SDS011;41205;44.264;19.884;2023-04-03T13:08:48;23.00;;;15.07;;
55328;SDS011;41205;44.264;19.884;2023-04-03T13:11:15;18.52;;;13.82;;
55328;SDS011;41205;44.264;19.884;2023-04-03T13:13:53;26.23;;;19.20;;
55328;SDS011;41205;44.264;19.884;2023-04-03T13:16:20;24.90;;;20.42;;
55328;SDS011;41205;44.264;19.884;2023-04-03T13:18:50;26.33;;;17.58;;
55328;SDS011;41205;44.264;19.884;2023-04-03T13:21:18;20.48;;;15.82;;
55328;SDS011;41205;44.264;19.884;2023-04-03T13:23:49;22.00;;;16.20;;
55328;SDS011;41205;44.264;19.884;2023-04-03T13:26:18;22.75;;;16.00;;
55328;SDS011;41205;44.264;19.884;2023-04-03T13:28:46;26.30;;;18.98;;
55328;SDS011;41205;44.264;19.884;2023-04-03T13:36:24;22.00;;;16.98;;
55328;SDS011;41205;44.264;19.884;2023-04-03T13:41:44;23.75;;;18.83;;
55328;SDS011;41205;44.264;19.884;2023-04-03T13:47:19;24.13;;;17.38;;
55328;SDS011;41205;44.264;19.884;2023-04-03T13:52:28;31.23;;;22.25;;
55328;SDS011;41205;44.264;19.884;2023-04-03T13:55:03;20.80;;;15.95;;
55328;SDS011;41205;44.264;19.884;2023-04-03T14:02:50;23.73;;;17.30;;
55328;SDS011;41205;44.264;19.884;2023-04-03T14:05:21;23.33;;;17.20;;
55328;SDS011;41205;44.264;19.884;2023-04-03T14:07:50;25.10;;;17.42;;
55328;SDS011;41205;44.264;19.884;2023-04-03T14:10:16;28.17;;;22.27;;
55328;SDS011;41205;44.264;19.884;2023-04-03T14:12:42;24.38;;;20.00;;
55328;SDS011;41205;44.264;19.884;2023-04-03T14:15:19;25.90;;;18.25;;
55328;SDS011;41205;44.264;19.884;2023-04-03T14:17:49;23.20;;;18.30;;
55328;SDS011;41205;44.264;19.884;2023-04-03T14:20:17;26.27;;;19.63;;
55328;SDS011;41205;44.264;19.884;2023-04-03T14:22:46;27.85;;;18.73;;
55328;SDS011;41205;44.264;19.884;2023-04-03T14:25:14;24.73;;;17.30;;
55328;SDS011;41205;44.264;19.884;2023-04-03T14:27:44;30.25;;;21.38;;
55328;SDS011;41205;44.264;19.884;2023-04-03T14:30:17;25.10;;;18.08;;
55328;SDS011;41205;44.264;19.884;2023-04-03T14:32:47;28.02;;;20.98;;
55328;SDS011;41205;44.264;19.884;2023-04-03T14:35:14;26.20;;;19.60;;
55328;SDS011;41205;44.264;19.884;2023-04-03T14:37:40;25.08;;;19.02;;
55328;SDS011;41205;44.264;19.884;2023-04-03T14:40:07;31.40;;;21.55;;
55328;SDS011;41205;44.264;19.884;2023-04-03T14:42:35;43.20;;;30.70;;
55328;SDS011;41205;44.264;19.884;2023-04-03T14:45:07;26.42;;;19.60;;
55328;SDS011;41205;44.264;19.884;2023-04-03T14:47:37;31.90;;;25.20;;
55328;SDS011;41205;44.264;19.884;2023-04-03T14:50:12;25.70;;;19.30;;
55328;SDS011;41205;44.264;19.884;2023-04-03T14:52:42;30.85;;;20.55;;
55328;SDS011;41205;44.264;19.884;2023-04-03T14:55:08;25.60;;;19.60;;
55328;SDS011;41205;44.264;19.884;2023-04-03T14:57:34;26.25;;;20.55;;
55328;SDS011;41205;44.264;19.884;2023-04-03T15:00:00;26.67;;;19.27;;
55328;SDS011;41205;44.264;19.884;2023-04-03T15:02:31;26.65;;;20.45;;
55328;SDS011;41205;44.264;19.884;2023-04-03T15:05:03;25.70;;;18.48;;
55328;SDS011;41205;44.264;19.884;2023-04-03T15:07:32;33.40;;;22.63;;
55328;SDS011;41205;44.264;19.884;2023-04-03T15:10:02;40.70;;;35.03;;
55328;SDS011;41205;44.264;19.884;2023-04-03T15:12:40;30.73;;;22.80;;
55328;SDS011;41205;44.264;19.884;2023-04-03T15:15:06;30.70;;;21.70;;
55328;SDS011;41205;44.264;19.884;2023-04-03T15:17:33;32.10;;;18.98;;
55328;SDS011;41205;44.264;19.884;2023-04-03T15:20:00;29.13;;;20.13;;
55328;SDS011;41205;44.264;19.884;2023-04-03T15:22:26;33.05;;;21.70;;
55328;SDS011;41205;44.264;19.884;2023-04-03T15:24:51;26.23;;;19.48;;
55328;SDS011;41205;44.264;19.884;2023-04-03T15:27:17;30.42;;;23.20;;
55328;SDS011;41205;44.264;19.884;2023-04-03T15:29:43;28.48;;;21.77;;
55328;SDS011;41205;44.264;19.884;2023-04-03T15:32:10;46.75;;;32.60;;
55328;SDS011;41205;44.264;19.884;2023-04-03T15:34:37;40.33;;;31.25;;
55328;SDS011;41205;44.264;19.884;2023-04-03T15:37:03;32.47;;;21.80;;
55328;SDS011;41205;44.264;19.884;2023-04-03T15:39:30;28.95;;;21.85;;
55328;SDS011;41205;44.264;19.884;2023-04-03T15:41:56;29.98;;;21.83;;
55328;SDS011;41205;44.264;19.884;2023-04-03T15:44:24;30.42;;;20.67;;
55328;SDS011;41205;44.264;19.884;2023-04-03T15:46:50;33.83;;;24.45;;
55328;SDS011;41205;44.264;19.884;2023-04-03T15:49:17;31.83;;;23.40;;
55328;SDS011;41205;44.264;19.884;2023-04-03T15:51:44;30.50;;;22.73;;
55328;SDS011;41205;44.264;19.884;2023-04-03T15:54:10;57.72;;;41.13;;
55328;SDS011;41205;44.264;19.884;2023-04-03T15:56:36;33.03;;;23.67;;
55328;SDS011;41205;44.264;19.884;2023-04-03T15:59:02;28.92;;;23.00;;
55328;SDS011;41205;44.264;19.884;2023-04-03T16:01:28;38.80;;;26.92;;
55328;SDS011;41205;44.264;19.884;2023-04-03T16:03:54;32.53;;;23.02;;
55328;SDS011;41205;44.264;19.884;2023-04-03T16:06:20;28.25;;;21.80;;
55328;SDS011;41205;44.264;19.884;2023-04-03T16:08:46;30.70;;;22.08;;
55328;SDS011;41205;44.264;19.884;2023-04-03T16:11:14;31.33;;;21.55;;
55328;SDS011;41205;44.264;19.884;2023-04-03T16:13:39;27.00;;;20.75;;
55328;SDS011;41205;44.264;19.884;2023-04-03T16:16:05;29.70;;;22.30;;
55328;SDS011;41205;44.264;19.884;2023-04-03T16:18:32;30.13;;;19.40;;
55328;SDS011;41205;44.264;19.884;2023-04-03T16:21:00;35.03;;;28.48;;
55328;SDS011;41205;44.264;19.884;2023-04-03T16:23:26;28.38;;;22.70;;
55328;SDS011;41205;44.264;19.884;2023-04-03T16:25:52;29.08;;;22.80;;
55328;SDS011;41205;44.264;19.884;2023-04-03T16:28:18;29.13;;;21.48;;
55328;SDS011;41205;44.264;19.884;2023-04-03T16:30:44;33.60;;;22.73;;
55328;SDS011;41205;44.264;19.884;2023-04-03T16:33:11;28.73;;;22.88;;
55328;SDS011;41205;44.264;19.884;2023-04-03T16:35:38;30.55;;;21.75;;
55328;SDS011;41205;44.264;19.884;2023-04-03T16:38:04;215.60;;;131.98;;